createdAt,value
2022-12-03T00:00:51.098Z,19.85
2022-12-03T00:01:47.703Z,19.10
2022-12-03T00:02:44.537Z,21.60
2022-12-03T00:03:41.477Z,20.88
2022-12-03T00:04:38.197Z,20.58
2022-12-03T00:05:34.906Z,16.35
2022-12-03T00:06:34.539Z,19.85
2022-12-03T00:07:31.606Z,20.80
2022-12-03T00:08:28.368Z,21.50
2022-12-03T00:09:24.979Z,20.20
2022-12-03T00:10:21.609Z,23.15
2022-12-03T00:11:18.170Z,20.38
2022-12-03T00:12:14.828Z,16.38
2022-12-03T00:13:11.473Z,17.02
2022-12-03T00:14:08.072Z,17.60
2022-12-03T00:15:06.238Z,21.58
2022-12-03T00:16:02.886Z,24.98
2022-12-03T00:17:00.350Z,17.73
2022-12-03T00:17:56.911Z,20.58
2022-12-03T00:18:53.503Z,17.15
2022-12-03T00:19:50.099Z,17.65
2022-12-03T00:20:46.692Z,15.98
2022-12-03T00:21:43.305Z,20.05
2022-12-03T00:22:39.864Z,19.17
2022-12-03T00:23:41.749Z,22.60
2022-12-03T00:25:35.541Z,16.50
2022-12-03T00:26:32.129Z,18.95
2022-12-03T00:27:28.692Z,17.83
2022-12-03T00:28:25.252Z,20.58
2022-12-03T00:29:21.862Z,18.30
2022-12-03T00:30:18.762Z,15.60
2022-12-03T00:31:15.385Z,21.10
2022-12-03T00:32:12.256Z,20.30
2022-12-03T00:33:08.951Z,17.73
2022-12-03T00:34:05.650Z,17.98
2022-12-03T00:35:02.550Z,19.90
2022-12-03T00:35:59.203Z,19.05
2022-12-03T00:36:55.764Z,19.45
2022-12-03T00:37:52.394Z,18.65
2022-12-03T00:38:48.980Z,23.20
2022-12-03T00:39:45.556Z,21.50
2022-12-03T00:40:42.230Z,18.00
2022-12-03T00:41:38.811Z,21.17
2022-12-03T00:42:35.450Z,19.92
2022-12-03T00:43:32.027Z,19.88
2022-12-03T00:44:28.715Z,19.90
2022-12-03T00:45:25.271Z,19.23
2022-12-03T00:46:22.017Z,20.05
2022-12-03T00:47:18.682Z,19.10
2022-12-03T00:48:15.272Z,17.80
2022-12-03T00:49:12.120Z,18.25
2022-12-03T00:50:09.159Z,17.98
2022-12-03T00:51:05.917Z,18.42
2022-12-03T00:52:02.622Z,13.77
2022-12-03T00:52:59.210Z,16.40
2022-12-03T00:53:55.829Z,17.35
2022-12-03T00:54:52.700Z,18.75
2022-12-03T00:55:50.765Z,21.00
2022-12-03T00:56:47.348Z,19.25
2022-12-03T00:57:44.002Z,18.33
2022-12-03T00:58:40.619Z,22.63
2022-12-03T00:59:37.274Z,19.65
2022-12-03T01:00:34.217Z,21.10
2022-12-03T01:01:30.852Z,19.95
2022-12-03T01:02:27.650Z,18.25
2022-12-03T01:03:24.281Z,20.60
2022-12-03T01:04:21.023Z,17.38
2022-12-03T01:05:19.041Z,18.45
2022-12-03T01:06:15.715Z,18.67
2022-12-03T01:07:12.283Z,20.02
2022-12-03T01:08:08.931Z,23.60
2022-12-03T01:09:05.658Z,20.38
2022-12-03T01:10:04.343Z,23.42
2022-12-03T01:11:01.045Z,23.08
2022-12-03T01:11:57.713Z,21.42
2022-12-03T01:12:54.320Z,22.13
2022-12-03T01:13:50.911Z,18.80
2022-12-03T01:14:47.712Z,17.33
2022-12-03T01:15:44.410Z,21.45
2022-12-03T01:16:41.870Z,22.33
2022-12-03T01:17:38.859Z,19.35
2022-12-03T01:18:35.447Z,17.48
2022-12-03T01:19:32.166Z,21.77
2022-12-03T01:20:28.875Z,22.50
2022-12-03T01:21:25.442Z,18.45
2022-12-03T01:22:22.070Z,21.73
2022-12-03T01:23:18.654Z,22.02
2022-12-03T01:24:15.779Z,22.42
2022-12-03T01:25:12.413Z,25.92
2022-12-03T01:26:09.076Z,30.73
2022-12-03T01:27:05.711Z,24.80
2022-12-03T01:28:02.306Z,23.83
2022-12-03T01:28:59.694Z,26.13
2022-12-03T01:29:56.320Z,23.90
2022-12-03T01:31:11.714Z,24.80
2022-12-03T01:32:21.935Z,21.52
2022-12-03T01:33:18.605Z,22.33
2022-12-03T01:34:15.328Z,21.17
2022-12-03T01:35:11.918Z,22.13
2022-12-03T01:36:08.763Z,22.73
2022-12-03T01:37:05.391Z,22.88
2022-12-03T01:38:01.983Z,20.15
2022-12-03T01:38:58.626Z,22.85
2022-12-03T01:39:55.324Z,20.98
2022-12-03T01:40:51.952Z,21.10
2022-12-03T01:41:51.675Z,20.95
2022-12-03T01:42:48.281Z,23.35
2022-12-03T01:43:46.037Z,19.17
2022-12-03T01:44:42.983Z,21.50
2022-12-03T01:45:39.570Z,22.00
2022-12-03T01:46:41.304Z,23.23
2022-12-03T01:47:38.223Z,19.52
2022-12-03T01:48:37.812Z,15.77
2022-12-03T01:49:39.771Z,18.30
2022-12-03T01:50:36.874Z,20.50
2022-12-03T01:51:33.820Z,24.80
2022-12-03T01:52:34.320Z,23.60
2022-12-03T01:53:30.923Z,20.92
2022-12-03T01:54:37.109Z,17.67
2022-12-03T01:55:34.316Z,19.45
2022-12-03T01:56:31.012Z,20.13
2022-12-03T01:57:32.895Z,18.77
2022-12-03T01:58:29.947Z,16.38
2022-12-03T01:59:37.401Z,16.58
2022-12-03T02:00:34.147Z,18.15
2022-12-03T02:01:30.855Z,14.63
2022-12-03T02:02:29.576Z,16.58
2022-12-03T02:03:26.649Z,16.90
2022-12-03T02:04:24.117Z,17.33
2022-12-03T02:05:23.815Z,19.83
2022-12-03T02:06:22.930Z,19.25
2022-12-03T02:07:32.151Z,16.45
2022-12-03T02:08:32.682Z,22.73
2022-12-03T02:09:29.308Z,22.23
2022-12-03T02:10:32.618Z,21.52
2022-12-03T02:11:34.131Z,20.98
2022-12-03T02:12:33.416Z,22.73
2022-12-03T02:13:30.281Z,21.10
2022-12-03T02:14:26.905Z,21.38
2022-12-03T02:15:23.703Z,24.08
2022-12-03T02:16:20.686Z,22.05
2022-12-03T02:17:17.772Z,19.95
2022-12-03T02:18:14.402Z,22.55
2022-12-03T02:19:24.082Z,22.17
2022-12-03T02:20:20.887Z,25.20
2022-12-03T02:21:23.201Z,21.20
2022-12-03T02:22:25.624Z,20.83
2022-12-03T02:23:33.924Z,19.67
2022-12-03T02:25:00.237Z,22.58
2022-12-03T02:25:57.008Z,18.67
2022-12-03T02:26:53.622Z,16.15
2022-12-03T02:27:50.921Z,20.30
2022-12-03T02:28:47.546Z,20.27
2022-12-03T02:29:44.359Z,25.60
2022-12-03T02:30:41.186Z,16.33
2022-12-03T02:31:37.881Z,16.33
2022-12-03T02:32:34.626Z,21.02
2022-12-03T02:33:32.267Z,25.00
2022-12-03T02:34:43.434Z,19.58
2022-12-03T02:35:40.319Z,18.70
2022-12-03T02:36:38.535Z,17.52
2022-12-03T02:37:37.080Z,17.67
2022-12-03T02:38:35.556Z,15.65
2022-12-03T02:39:35.453Z,14.80
2022-12-03T02:40:33.886Z,16.35
2022-12-03T02:41:49.167Z,18.27
2022-12-03T02:42:46.385Z,23.05
2022-12-03T02:43:43.003Z,18.77
2022-12-03T02:44:39.785Z,16.65
2022-12-03T02:45:39.799Z,15.65
2022-12-03T02:46:36.697Z,19.55
2022-12-03T02:47:36.963Z,13.38
2022-12-03T02:48:37.342Z,16.38
2022-12-03T02:49:33.948Z,15.63
2022-12-03T02:50:34.098Z,13.40
2022-12-03T02:51:30.773Z,21.35
2022-12-03T02:52:27.657Z,16.23
2022-12-03T02:53:27.744Z,16.98
2022-12-03T02:54:24.511Z,10.98
2022-12-03T02:55:22.104Z,16.38
2022-12-03T02:56:23.466Z,11.40
2022-12-03T02:57:20.626Z,15.50
2022-12-03T02:58:18.161Z,14.70
2022-12-03T02:59:15.098Z,16.20
2022-12-03T03:00:12.462Z,29.30
2022-12-03T03:01:10.332Z,36.22
2022-12-03T03:02:07.122Z,25.15
2022-12-03T03:03:06.318Z,23.90
2022-12-03T03:04:04.639Z,24.42
2022-12-03T03:05:01.499Z,13.60
2022-12-03T03:06:01.235Z,12.32
2022-12-03T03:06:57.846Z,16.58
2022-12-03T03:07:54.745Z,15.32
2022-12-03T03:08:51.798Z,23.58
2022-12-03T03:09:48.530Z,19.45
2022-12-03T03:10:46.970Z,15.35
2022-12-03T03:11:43.626Z,15.52
2022-12-03T03:12:40.743Z,18.50
2022-12-03T03:13:39.019Z,11.48
2022-12-03T03:14:35.722Z,14.68
2022-12-03T03:15:32.379Z,12.60
2022-12-03T03:16:29.017Z,12.82
2022-12-03T03:17:25.877Z,11.55
2022-12-03T03:18:22.824Z,13.23
2022-12-03T03:19:19.495Z,15.27
2022-12-03T03:20:16.289Z,14.15
2022-12-03T03:21:13.180Z,13.07
2022-12-03T03:22:11.415Z,16.35
2022-12-03T03:23:10.915Z,13.95
2022-12-03T03:24:07.833Z,13.80
2022-12-03T03:25:07.251Z,18.20
2022-12-03T03:26:08.697Z,15.18
2022-12-03T03:27:05.662Z,15.98
2022-12-03T03:28:02.602Z,20.40
2022-12-03T03:29:00.345Z,19.27
2022-12-03T03:29:58.385Z,13.55
2022-12-03T03:30:55.496Z,13.30
2022-12-03T03:31:52.257Z,16.35
2022-12-03T03:32:49.097Z,12.55
2022-12-03T03:33:48.468Z,13.90
2022-12-03T03:34:45.217Z,20.25
2022-12-03T03:35:44.641Z,15.43
2022-12-03T03:36:41.886Z,10.07
2022-12-03T03:37:39.267Z,11.68
2022-12-03T03:38:37.060Z,11.75
2022-12-03T03:39:33.747Z,12.13
2022-12-03T03:40:30.639Z,11.45
2022-12-03T03:41:28.877Z,11.30
2022-12-03T03:42:25.616Z,13.15
2022-12-03T03:43:23.947Z,11.10
2022-12-03T03:44:20.639Z,10.23
2022-12-03T03:45:18.055Z,10.90
2022-12-03T03:46:15.495Z,12.57
2022-12-03T03:47:13.084Z,9.35
2022-12-03T03:48:10.434Z,11.13
2022-12-03T03:49:07.475Z,11.30
2022-12-03T03:50:05.241Z,10.82
2022-12-03T03:51:04.383Z,12.35
2022-12-03T03:52:01.079Z,10.73
2022-12-03T03:53:00.226Z,12.27
2022-12-03T03:53:57.115Z,9.80
2022-12-03T03:54:53.983Z,8.88
2022-12-03T03:55:51.448Z,10.77
2022-12-03T03:56:48.159Z,11.18
2022-12-03T03:57:44.978Z,10.48
2022-12-03T03:58:41.553Z,10.48
2022-12-03T03:59:38.475Z,11.07
2022-12-03T04:00:36.340Z,8.57
2022-12-03T04:01:33.279Z,8.60
2022-12-03T04:02:29.949Z,8.80
2022-12-03T04:03:27.492Z,10.35
2022-12-03T04:04:29.186Z,9.55
2022-12-03T04:05:26.306Z,7.65
2022-12-03T04:06:22.955Z,9.73
2022-12-03T04:07:19.731Z,12.45
2022-12-03T04:08:16.803Z,8.82
2022-12-03T04:09:13.641Z,9.55
2022-12-03T04:10:29.414Z,10.57
2022-12-03T04:11:44.614Z,9.20
2022-12-03T04:12:56.116Z,8.38
2022-12-03T04:13:52.789Z,12.75
2022-12-03T04:14:49.348Z,9.65
2022-12-03T04:15:45.976Z,10.52
2022-12-03T04:16:42.607Z,18.38
2022-12-03T04:17:39.194Z,10.77
2022-12-03T04:18:44.983Z,15.52
2022-12-03T04:19:41.554Z,17.38
2022-12-03T04:20:38.656Z,15.73
2022-12-03T04:21:53.847Z,18.85
2022-12-03T04:22:50.529Z,15.95
2022-12-03T04:23:47.222Z,18.85
2022-12-03T04:24:43.950Z,23.15
2022-12-03T04:25:59.016Z,17.85
2022-12-03T04:27:14.403Z,20.02
2022-12-03T04:28:29.477Z,18.77
2022-12-03T04:29:26.061Z,17.00
2022-12-03T04:30:22.819Z,17.92
2022-12-03T04:31:38.206Z,18.40
2022-12-03T04:32:53.036Z,18.55
2022-12-03T04:34:08.189Z,19.83
2022-12-03T04:35:23.722Z,17.15
2022-12-03T04:36:20.391Z,17.30
2022-12-03T04:37:17.206Z,18.88
2022-12-03T04:38:16.226Z,24.35
2022-12-03T04:39:12.803Z,19.80
2022-12-03T04:40:29.546Z,22.05
2022-12-03T04:41:26.176Z,20.27
2022-12-03T04:42:22.835Z,20.38
2022-12-03T04:43:19.477Z,19.85
2022-12-03T04:44:36.063Z,22.13
2022-12-03T04:45:32.804Z,21.73
2022-12-03T04:46:29.539Z,21.15
2022-12-03T04:47:26.205Z,22.15
2022-12-03T04:48:22.957Z,19.85
2022-12-03T04:49:19.568Z,19.65
2022-12-03T04:50:16.253Z,19.33
2022-12-03T04:51:12.927Z,18.92
2022-12-03T04:52:11.394Z,17.35
2022-12-03T04:53:08.092Z,20.13
2022-12-03T04:54:04.735Z,20.17
2022-12-03T04:55:01.276Z,21.58
2022-12-03T04:55:57.905Z,19.15
2022-12-03T04:56:54.522Z,18.55
2022-12-03T04:57:51.130Z,20.52
2022-12-03T04:58:47.746Z,19.90
2022-12-03T04:59:44.333Z,21.95
2022-12-03T05:00:40.958Z,17.42
2022-12-03T05:01:37.647Z,18.70
2022-12-03T05:02:34.478Z,21.63
2022-12-03T05:03:31.102Z,17.10
2022-12-03T05:04:27.786Z,21.80
2022-12-03T05:05:24.395Z,19.08
2022-12-03T05:06:21.063Z,22.17
2022-12-03T05:07:17.649Z,20.52
2022-12-03T05:08:14.450Z,19.33
2022-12-03T05:09:11.959Z,26.35
2022-12-03T05:10:09.822Z,14.95
2022-12-03T05:11:06.474Z,17.33
2022-12-03T05:12:03.977Z,16.05
2022-12-03T05:13:00.587Z,18.60
2022-12-03T05:13:57.246Z,16.48
2022-12-03T05:14:54.446Z,13.88
2022-12-03T05:15:51.156Z,24.40
2022-12-03T05:16:47.869Z,20.48
2022-12-03T05:17:44.524Z,12.05
2022-12-03T05:18:41.079Z,18.77
2022-12-03T05:19:56.010Z,15.60
2022-12-03T05:20:53.687Z,14.90
2022-12-03T05:21:50.502Z,14.75
2022-12-03T05:22:47.213Z,13.88
2022-12-03T05:23:44.230Z,12.48
2022-12-03T05:24:40.897Z,16.08
2022-12-03T05:25:37.892Z,15.32
2022-12-03T05:26:34.560Z,14.43
2022-12-03T05:27:31.213Z,14.25
2022-12-03T05:28:28.002Z,15.98
2022-12-03T05:29:24.570Z,17.05
2022-12-03T05:30:21.172Z,13.52
2022-12-03T05:31:17.956Z,15.82
2022-12-03T05:32:15.109Z,11.82
2022-12-03T05:33:11.750Z,12.40
2022-12-03T05:34:08.416Z,10.60
2022-12-03T05:35:05.444Z,11.35
2022-12-03T05:36:02.070Z,11.27
2022-12-03T05:36:58.669Z,10.60
2022-12-03T05:37:55.307Z,11.07
2022-12-03T05:38:51.925Z,11.48
2022-12-03T05:39:48.543Z,13.13
2022-12-03T05:40:45.181Z,10.75
2022-12-03T05:42:04.854Z,11.32
2022-12-03T05:43:01.810Z,13.40
2022-12-03T05:43:58.438Z,7.82
2022-12-03T05:44:55.369Z,11.55
2022-12-03T05:45:52.372Z,12.40
2022-12-03T05:46:49.010Z,11.40
2022-12-03T05:47:45.588Z,9.95
2022-12-03T05:48:42.127Z,11.38
2022-12-03T05:49:38.684Z,11.55
2022-12-03T05:50:37.075Z,11.48
2022-12-03T05:51:33.669Z,11.07
2022-12-03T05:52:30.317Z,14.27
2022-12-03T05:53:26.883Z,10.65
2022-12-03T05:54:23.490Z,13.23
2022-12-03T05:55:20.420Z,9.63
2022-12-03T05:56:16.952Z,12.43
2022-12-03T05:57:13.513Z,10.65
2022-12-03T05:58:10.214Z,11.35
2022-12-03T05:59:06.812Z,9.55
2022-12-03T06:00:09.213Z,12.45
2022-12-03T06:01:06.002Z,10.77
2022-12-03T06:02:02.840Z,11.85
2022-12-03T06:03:00.041Z,15.13
2022-12-03T06:03:56.885Z,11.23
2022-12-03T06:04:53.819Z,9.23
2022-12-03T06:05:51.060Z,11.98
2022-12-03T06:06:47.707Z,11.75
2022-12-03T06:07:44.367Z,8.38
2022-12-03T06:08:41.010Z,11.27
2022-12-03T06:09:37.900Z,9.52
2022-12-03T06:10:34.519Z,12.00
2022-12-03T06:11:34.170Z,12.10
2022-12-03T06:12:30.860Z,8.45
2022-12-03T06:13:27.432Z,15.40
2022-12-03T06:14:24.069Z,13.32
2022-12-03T06:15:20.818Z,14.20
2022-12-03T06:16:17.504Z,15.80
2022-12-03T06:17:14.192Z,14.25
2022-12-03T06:18:10.978Z,18.63
2022-12-03T06:19:07.666Z,21.58
2022-12-03T06:20:05.346Z,22.52
2022-12-03T06:21:01.912Z,16.10
2022-12-03T06:21:58.527Z,14.00
2022-12-03T06:22:55.154Z,14.45
2022-12-03T06:23:51.730Z,12.68
2022-12-03T06:24:48.347Z,13.65
2022-12-03T06:25:44.893Z,17.50
2022-12-03T06:26:41.503Z,15.68
2022-12-03T06:27:38.497Z,15.27
2022-12-03T06:28:35.088Z,16.92
2022-12-03T06:29:31.747Z,21.92
2022-12-03T06:30:28.359Z,19.50
2022-12-03T06:31:24.991Z,16.40
2022-12-03T06:32:21.686Z,16.80
2022-12-03T06:33:18.329Z,19.20
2022-12-03T06:34:14.929Z,18.70
2022-12-03T06:35:12.678Z,18.73
2022-12-03T06:36:09.316Z,18.08
2022-12-03T06:37:06.274Z,18.55
2022-12-03T06:38:03.019Z,18.10
2022-12-03T06:38:59.619Z,20.52
2022-12-03T06:39:56.204Z,18.80
2022-12-03T06:40:52.801Z,18.77
2022-12-03T06:41:49.465Z,17.02
2022-12-03T06:42:46.053Z,20.00
2022-12-03T06:43:42.662Z,19.67
2022-12-03T06:44:39.241Z,20.83
2022-12-03T06:45:35.866Z,21.88
2022-12-03T06:46:32.528Z,18.10
2022-12-03T06:47:29.211Z,19.85
2022-12-03T06:48:25.810Z,19.73
2022-12-03T06:49:22.567Z,19.42
2022-12-03T06:50:19.137Z,20.17
2022-12-03T06:51:15.738Z,17.67
2022-12-03T06:52:12.308Z,21.63
2022-12-03T06:53:08.911Z,23.05
2022-12-03T06:54:05.721Z,21.95
2022-12-03T06:55:02.319Z,19.88
2022-12-03T06:55:58.936Z,19.75
2022-12-03T06:56:55.563Z,21.38
2022-12-03T06:57:52.176Z,22.40
2022-12-03T06:58:48.755Z,22.23
2022-12-03T06:59:45.395Z,23.77
2022-12-03T07:00:42.038Z,19.45
2022-12-03T07:01:38.670Z,21.23
2022-12-03T07:02:35.578Z,18.60
2022-12-03T07:03:32.227Z,23.70
2022-12-03T07:04:28.846Z,23.92
2022-12-03T07:05:25.433Z,24.38
2022-12-03T07:06:22.080Z,19.70
2022-12-03T07:07:18.741Z,22.20
2022-12-03T07:08:15.353Z,20.88
2022-12-03T07:09:11.964Z,23.63
2022-12-03T07:10:08.983Z,26.67
2022-12-03T07:11:05.721Z,22.25
2022-12-03T07:12:02.350Z,22.45
2022-12-03T07:12:58.970Z,19.92
2022-12-03T07:13:58.849Z,23.23
2022-12-03T07:15:54.815Z,21.45
2022-12-03T07:16:51.513Z,20.27
2022-12-03T07:17:48.120Z,23.50
2022-12-03T07:18:45.039Z,17.58
2022-12-03T07:19:41.757Z,19.52
2022-12-03T07:20:38.527Z,21.25
2022-12-03T07:21:35.241Z,20.73
2022-12-03T07:22:31.779Z,16.13
2022-12-03T07:23:28.343Z,20.05
2022-12-03T07:24:24.969Z,21.42
2022-12-03T07:25:23.627Z,17.80
2022-12-03T07:26:20.792Z,23.48
2022-12-03T07:27:17.428Z,19.98
2022-12-03T07:28:14.118Z,17.80
2022-12-03T07:29:10.771Z,21.90
2022-12-03T07:30:08.141Z,19.00
2022-12-03T07:31:05.572Z,17.38
2022-12-03T07:32:02.216Z,20.00
2022-12-03T07:32:58.883Z,17.42
2022-12-03T07:33:55.518Z,18.85
2022-12-03T07:34:52.486Z,20.83
2022-12-03T07:35:49.373Z,18.63
2022-12-03T07:36:45.960Z,19.42
2022-12-03T07:37:42.571Z,19.35
2022-12-03T07:38:39.164Z,21.63
2022-12-03T07:39:35.806Z,19.13
2022-12-03T07:40:32.449Z,19.08
2022-12-03T07:41:29.084Z,21.10
2022-12-03T07:42:25.684Z,19.38
2022-12-03T07:43:22.451Z,16.65
2022-12-03T07:44:19.247Z,20.20
2022-12-03T07:45:15.910Z,18.45
2022-12-03T07:46:12.556Z,19.30
2022-12-03T07:47:09.247Z,16.92
2022-12-03T07:48:06.214Z,18.52
2022-12-03T07:49:03.631Z,16.15
2022-12-03T07:50:00.197Z,16.52
2022-12-03T07:50:56.836Z,18.50
2022-12-03T07:51:54.483Z,17.17
2022-12-03T07:52:51.204Z,15.38
2022-12-03T07:53:47.828Z,16.05
2022-12-03T07:54:44.468Z,19.35
2022-12-03T07:55:41.064Z,18.02
2022-12-03T07:56:37.651Z,18.70
2022-12-03T07:57:34.266Z,18.52
2022-12-03T07:58:31.620Z,18.02
2022-12-03T07:59:29.031Z,18.00
2022-12-03T08:00:25.707Z,16.10
2022-12-03T08:01:22.525Z,16.05
2022-12-03T08:02:21.666Z,17.25
2022-12-03T08:03:18.570Z,18.27
2022-12-03T08:04:18.302Z,19.00
2022-12-03T08:05:15.055Z,19.67
2022-12-03T08:06:11.757Z,19.25
2022-12-03T08:07:08.379Z,18.00
2022-12-03T08:08:05.195Z,20.85
2022-12-03T08:09:01.887Z,21.08
2022-12-03T08:09:58.611Z,24.30
2022-12-03T08:10:55.385Z,17.05
2022-12-03T08:11:52.281Z,18.02
2022-12-03T08:12:49.041Z,20.27
2022-12-03T08:13:45.620Z,16.45
2022-12-03T08:14:42.654Z,17.80
2022-12-03T08:15:39.827Z,20.80
2022-12-03T08:16:39.279Z,17.95
2022-12-03T08:17:36.648Z,18.75
2022-12-03T08:18:33.286Z,20.58
2022-12-03T08:19:29.920Z,25.08
2022-12-03T08:20:34.636Z,16.33
2022-12-03T08:21:35.190Z,16.33
2022-12-03T08:22:31.887Z,18.67
2022-12-03T08:23:28.610Z,19.20
2022-12-03T08:24:25.231Z,21.48
2022-12-03T08:25:28.711Z,16.27
2022-12-03T08:26:28.165Z,16.15
2022-12-03T08:27:24.952Z,15.30
2022-12-03T08:28:25.861Z,16.88
2022-12-03T08:29:22.603Z,18.48
2022-12-03T08:30:20.675Z,17.50
2022-12-03T08:31:20.087Z,16.60
2022-12-03T08:32:16.842Z,20.40
2022-12-03T08:33:25.480Z,20.23
2022-12-03T08:34:24.437Z,17.50
2022-12-03T08:35:31.016Z,16.63
2022-12-03T08:36:33.419Z,17.38
2022-12-03T08:37:30.144Z,13.38
2022-12-03T08:38:29.584Z,17.48
2022-12-03T08:39:41.468Z,18.33
2022-12-03T08:40:43.404Z,20.90
2022-12-03T08:41:58.610Z,17.77
2022-12-03T08:42:55.195Z,16.98
2022-12-03T08:43:51.751Z,22.00
2022-12-03T08:44:48.408Z,19.85
2022-12-03T08:45:45.836Z,20.45
2022-12-03T08:46:42.491Z,17.88
2022-12-03T08:47:40.366Z,22.10
2022-12-03T08:48:40.678Z,19.52
2022-12-03T08:50:40.965Z,22.23
2022-12-03T08:51:37.552Z,22.90
2022-12-03T08:52:34.890Z,20.75
2022-12-03T08:53:34.564Z,21.27
2022-12-03T08:54:31.301Z,27.02
2022-12-03T08:55:45.581Z,28.88
2022-12-03T08:56:42.191Z,33.72
2022-12-03T08:57:41.366Z,27.52
2022-12-03T08:58:40.513Z,25.83
2022-12-03T08:59:40.261Z,23.48
2022-12-03T09:00:39.279Z,28.88
2022-12-03T09:01:43.290Z,23.85
2022-12-03T09:02:46.109Z,24.95
2022-12-03T09:03:54.787Z,26.08
2022-12-03T09:04:53.273Z,25.02
2022-12-03T09:05:50.418Z,24.83
2022-12-03T09:06:47.104Z,25.83
2022-12-03T09:07:43.819Z,22.30
2022-12-03T09:08:40.488Z,25.15
2022-12-03T09:09:37.169Z,30.65
2022-12-03T09:10:33.761Z,26.23
2022-12-03T09:11:30.409Z,34.50
2022-12-03T09:12:27.055Z,26.02
2022-12-03T09:13:23.732Z,31.33
2022-12-03T09:14:22.618Z,29.92
2022-12-03T09:15:19.233Z,29.10
2022-12-03T09:16:15.956Z,32.67
2022-12-03T09:17:12.687Z,26.83
2022-12-03T09:18:09.458Z,27.13
2022-12-03T09:19:23.445Z,29.27
2022-12-03T09:20:20.298Z,27.40
2022-12-03T09:21:16.868Z,21.67
2022-12-03T09:22:15.244Z,23.35
2022-12-03T09:23:12.183Z,24.08
2022-12-03T09:24:08.923Z,24.40
2022-12-03T09:25:06.115Z,23.45
2022-12-03T09:26:02.689Z,22.83
2022-12-03T09:26:59.486Z,24.08
2022-12-03T09:27:56.150Z,26.40
2022-12-03T09:28:52.799Z,20.88
2022-12-03T09:29:50.499Z,27.45
2022-12-03T09:30:47.071Z,21.38
2022-12-03T09:31:43.666Z,23.38
2022-12-03T09:32:40.346Z,22.92
2022-12-03T09:33:36.951Z,27.02
2022-12-03T09:34:34.785Z,26.00
2022-12-03T09:35:31.363Z,22.02
2022-12-03T09:36:28.180Z,17.75
2022-12-03T09:37:24.809Z,20.02
2022-12-03T09:38:21.354Z,20.45
2022-12-03T09:39:17.974Z,22.35
2022-12-03T09:40:15.255Z,22.98
2022-12-03T09:41:11.991Z,108.07
2022-12-03T09:42:09.974Z,234.40
2022-12-03T09:43:06.761Z,206.35
2022-12-03T09:44:05.110Z,144.80
2022-12-03T09:45:05.430Z,97.53
2022-12-03T09:46:03.473Z,120.07
2022-12-03T09:47:01.500Z,411.13
2022-12-03T09:47:58.847Z,530.60
2022-12-03T09:48:55.614Z,174.05
2022-12-03T09:49:52.990Z,277.98
2022-12-03T09:50:50.664Z,248.80
2022-12-03T09:51:47.419Z,120.97
2022-12-03T09:52:45.245Z,59.42
2022-12-03T09:53:42.183Z,111.85
2022-12-03T09:54:42.826Z,140.75
2022-12-03T09:55:45.287Z,79.63
2022-12-03T09:56:41.951Z,356.33
2022-12-03T09:57:38.663Z,148.65
2022-12-03T09:58:35.292Z,56.42
2022-12-03T09:59:33.499Z,36.58
2022-12-03T10:00:30.585Z,54.53
2022-12-03T10:01:30.331Z,43.15
2022-12-03T10:02:30.400Z,25.60
2022-12-03T10:03:30.708Z,39.05
2022-12-03T10:04:28.830Z,21.67
2022-12-03T10:05:26.035Z,19.88
2022-12-03T10:06:23.892Z,20.13
2022-12-03T10:07:21.061Z,27.45
2022-12-03T10:08:21.818Z,22.35
2022-12-03T10:09:28.241Z,36.55
2022-12-03T10:10:25.242Z,50.67
2022-12-03T10:11:24.699Z,54.80
2022-12-03T10:12:24.593Z,47.38
2022-12-03T10:13:28.543Z,36.33
2022-12-03T10:14:25.591Z,40.15
2022-12-03T10:15:23.692Z,36.15
2022-12-03T10:16:21.300Z,333.27
2022-12-03T10:17:18.270Z,649.05
2022-12-03T10:18:30.511Z,387.00
2022-12-03T10:19:32.894Z,240.90
2022-12-03T10:20:30.407Z,133.45
2022-12-03T10:21:35.062Z,85.88
2022-12-03T10:22:37.023Z,262.05
2022-12-03T10:23:33.744Z,326.98
2022-12-03T10:24:34.268Z,268.90
2022-12-03T10:25:30.900Z,129.30
2022-12-03T10:26:40.578Z,53.53
2022-12-03T10:27:37.318Z,52.00
2022-12-03T10:28:39.522Z,62.47
2022-12-03T10:29:36.297Z,28.25
2022-12-03T10:30:33.077Z,28.38
2022-12-03T10:31:35.773Z,257.58
2022-12-03T10:32:41.710Z,108.20
2022-12-03T10:33:44.829Z,36.70
2022-12-03T10:34:42.404Z,55.10
2022-12-03T10:35:41.601Z,92.10
2022-12-03T10:36:38.228Z,46.53
2022-12-03T10:37:34.884Z,29.00
2022-12-03T10:38:31.493Z,31.65
2022-12-03T10:39:28.070Z,73.80
2022-12-03T10:40:35.911Z,145.40
2022-12-03T10:41:32.566Z,396.27
2022-12-03T10:42:31.979Z,218.35
2022-12-03T10:43:28.560Z,78.63
2022-12-03T10:44:30.589Z,110.32
2022-12-03T10:45:27.267Z,71.75
2022-12-03T10:46:23.950Z,107.47
2022-12-03T10:47:22.620Z,71.15
2022-12-03T10:48:22.067Z,47.10
2022-12-03T10:49:19.522Z,88.18
2022-12-03T10:50:19.427Z,88.07
2022-12-03T10:51:21.243Z,63.10
2022-12-03T10:52:26.051Z,22.95
2022-12-03T10:53:27.219Z,17.35
2022-12-03T10:54:26.282Z,16.13
2022-12-03T10:55:23.210Z,18.25
2022-12-03T10:56:29.383Z,27.02
2022-12-03T10:57:26.447Z,17.42
2022-12-03T10:58:25.845Z,17.10
2022-12-03T10:59:25.038Z,16.48
2022-12-03T11:00:22.821Z,23.40
2022-12-03T11:01:22.999Z,21.50
2022-12-03T11:02:22.898Z,14.63
2022-12-03T11:03:22.613Z,14.38
2022-12-03T11:04:37.553Z,14.80
2022-12-03T11:05:34.202Z,50.60
2022-12-03T11:06:32.946Z,27.92
2022-12-03T11:07:30.998Z,19.70
2022-12-03T11:08:34.641Z,14.35
2022-12-03T11:09:33.504Z,12.63
2022-12-03T11:10:30.165Z,12.82
2022-12-03T11:11:29.049Z,13.07
2022-12-03T11:12:34.650Z,19.65
2022-12-03T11:13:34.021Z,18.30
2022-12-03T11:14:49.217Z,17.70
2022-12-03T11:15:46.153Z,19.67
2022-12-03T11:17:03.055Z,20.38
2022-12-03T11:18:00.734Z,18.92
2022-12-03T11:18:58.529Z,20.92
2022-12-03T11:19:55.178Z,18.60
2022-12-03T11:21:09.002Z,12.13
2022-12-03T11:22:05.691Z,18.60
2022-12-03T11:23:02.321Z,97.40
2022-12-03T11:23:58.895Z,79.75
2022-12-03T11:25:24.755Z,61.10
2022-12-03T11:26:44.581Z,25.67
2022-12-03T11:27:44.921Z,84.38
2022-12-03T11:28:47.355Z,70.85
2022-12-03T11:31:50.615Z,120.93
2022-12-03T11:32:47.195Z,137.57
2022-12-03T11:33:44.622Z,116.40
2022-12-03T11:34:41.465Z,97.05
2022-12-03T11:36:03.920Z,55.03
2022-12-03T11:37:09.594Z,71.88
2022-12-03T11:38:37.407Z,58.42
2022-12-03T11:40:05.066Z,43.30
2022-12-03T11:41:07.811Z,102.47
2022-12-03T11:42:28.547Z,162.90
2022-12-03T11:43:57.226Z,86.93
2022-12-03T11:45:05.912Z,45.45
2022-12-03T11:46:10.230Z,47.97
2022-12-03T11:47:14.857Z,32.05
2022-12-03T11:48:14.845Z,23.30
2022-12-03T11:49:33.051Z,27.40
2022-12-03T11:50:40.324Z,28.75
2022-12-03T11:51:37.561Z,20.80
2022-12-03T11:52:43.346Z,25.67
2022-12-03T11:53:40.453Z,18.50
2022-12-03T11:54:37.529Z,17.13
2022-12-03T11:55:37.710Z,18.90
2022-12-03T11:56:34.357Z,41.88
2022-12-03T11:57:35.367Z,25.63
2022-12-03T11:58:32.865Z,37.05
2022-12-03T11:59:29.525Z,98.82
2022-12-03T12:00:26.288Z,84.07
2022-12-03T12:01:38.964Z,47.92
2022-12-03T12:02:36.031Z,31.25
2022-12-03T12:03:43.516Z,29.77
2022-12-03T12:04:46.522Z,22.23
2022-12-03T12:05:43.101Z,17.40
2022-12-03T12:06:42.592Z,18.15
2022-12-03T12:07:39.524Z,15.40
2022-12-03T12:08:40.157Z,17.95
2022-12-03T12:09:50.679Z,34.47
2022-12-03T12:10:49.387Z,50.15
2022-12-03T12:11:46.146Z,28.75
2022-12-03T12:12:54.356Z,54.25
2022-12-03T12:14:02.439Z,103.65
2022-12-03T12:14:59.786Z,52.92
2022-12-03T12:15:57.623Z,18.67
2022-12-03T12:16:55.382Z,25.60
2022-12-03T12:17:52.198Z,27.33
2022-12-03T12:18:54.912Z,18.20
2022-12-03T12:20:22.505Z,42.33
2022-12-03T12:21:41.374Z,41.20
2022-12-03T12:22:38.320Z,20.48
2022-12-03T12:23:34.993Z,76.95
2022-12-03T12:24:41.334Z,64.55
2022-12-03T12:25:40.746Z,137.18
2022-12-03T12:26:37.291Z,162.75
2022-12-03T12:27:38.005Z,258.88
2022-12-03T12:28:34.939Z,80.38
2022-12-03T12:29:31.657Z,78.63
2022-12-03T12:30:28.235Z,75.53
2022-12-03T12:31:24.932Z,27.77
2022-12-03T12:32:27.053Z,34.65
2022-12-03T12:33:26.133Z,26.23
2022-12-03T12:34:22.752Z,15.65
2022-12-03T12:35:29.759Z,15.48
2022-12-03T12:36:27.990Z,13.38
2022-12-03T12:37:59.832Z,12.60
2022-12-03T12:38:57.020Z,32.50
2022-12-03T12:39:56.305Z,25.35
2022-12-03T12:40:53.052Z,18.25
2022-12-03T12:41:50.667Z,114.15
2022-12-03T12:42:57.619Z,112.97
2022-12-03T12:43:54.276Z,36.65